sensor_id;sensor_type;location;lat;lon;timestamp;pressure;altitude;pressure_sealevel;temperature;humidity
44453;BME280;30155;52.164;21.236;2023-04-27T00:02:04;100568.82;;;1.19;67.55
44453;BME280;30155;52.164;21.236;2023-04-27T00:07:18;100567.26;;;1.15;67.85
44453;BME280;30155;52.164;21.236;2023-04-27T00:12:41;100560.03;;;1.07;67.84
44453;BME280;30155;52.164;21.236;2023-04-27T00:17:41;100558.48;;;1.04;67.80
44453;BME280;30155;52.164;21.236;2023-04-27T00:22:34;100560.55;;;1.01;67.92
44453;BME280;30155;52.164;21.236;2023-04-27T00:27:27;100558.96;;;0.96;67.97
44453;BME280;30155;52.164;21.236;2023-04-27T00:33:01;100566.40;;;0.89;67.96
44453;BME280;30155;52.164;21.236;2023-04-27T00:38:08;100568.75;;;0.82;68.09
44453;BME280;30155;52.164;21.236;2023-04-27T00:43:12;100573.61;;;0.76;68.27
44453;BME280;30155;52.164;21.236;2023-04-27T00:48:21;100579.00;;;0.72;68.42
44453;BME280;30155;52.164;21.236;2023-04-27T00:53:42;100579.77;;;0.67;68.45
44453;BME280;30155;52.164;21.236;2023-04-27T00:58:40;100579.68;;;0.63;68.35
44453;BME280;30155;52.164;21.236;2023-04-27T01:03:33;100585.14;;;0.59;68.56
44453;BME280;30155;52.164;21.236;2023-04-27T01:08:29;100590.84;;;0.55;68.70
44453;BME280;30155;52.164;21.236;2023-04-27T01:13:21;100591.70;;;0.52;68.72
44453;BME280;30155;52.164;21.236;2023-04-27T01:18:14;100588.77;;;0.48;68.93
44453;BME280;30155;52.164;21.236;2023-04-27T01:23:07;100593.69;;;0.45;68.95
44453;BME280;30155;52.164;21.236;2023-04-27T01:28:00;100598.16;;;0.39;69.05
44453;BME280;30155;52.164;21.236;2023-04-27T01:32:53;100601.50;;;0.34;69.11
44453;BME280;30155;52.164;21.236;2023-04-27T01:37:47;100602.21;;;0.32;69.20
44453;BME280;30155;52.164;21.236;2023-04-27T01:42:41;100600.55;;;0.27;69.04
44453;BME280;30155;52.164;21.236;2023-04-27T01:47:33;100602.39;;;0.23;69.08
44453;BME280;30155;52.164;21.236;2023-04-27T01:52:26;100608.30;;;0.16;69.10
44453;BME280;30155;52.164;21.236;2023-04-27T01:57:45;100613.77;;;0.02;69.10
44453;BME280;30155;52.164;21.236;2023-04-27T02:02:56;100612.94;;;-0.02;69.46
44453;BME280;30155;52.164;21.236;2023-04-27T02:08:17;100612.52;;;-0.03;69.50
44453;BME280;30155;52.164;21.236;2023-04-27T02:14:15;100613.92;;;-0.08;69.34
44453;BME280;30155;52.164;21.236;2023-04-27T02:19:36;100610.55;;;-0.13;69.58
44453;BME280;30155;52.164;21.236;2023-04-27T02:24:41;100609.52;;;-0.13;69.77
44453;BME280;30155;52.164;21.236;2023-04-27T02:29:34;100609.91;;;-0.18;69.61
44453;BME280;30155;52.164;21.236;2023-04-27T02:34:29;100611.81;;;-0.23;69.75
44453;BME280;30155;52.164;21.236;2023-04-27T02:39:22;100612.39;;;-0.28;69.79
44453;BME280;30155;52.164;21.236;2023-04-27T02:44:15;100615.25;;;-0.34;69.89
44453;BME280;30155;52.164;21.236;2023-04-27T02:49:08;100623.25;;;-0.38;69.95
44453;BME280;30155;52.164;21.236;2023-04-27T02:54:02;100618.34;;;-0.37;70.35
44453;BME280;30155;52.164;21.236;2023-04-27T02:58:55;100621.70;;;-0.38;70.33
44453;BME280;30155;52.164;21.236;2023-04-27T03:03:48;100625.05;;;-0.39;70.51
44453;BME280;30155;52.164;21.236;2023-04-27T03:08:41;100629.63;;;-0.39;70.41
44453;BME280;30155;52.164;21.236;2023-04-27T03:13:34;100635.41;;;-0.39;70.50
44453;BME280;30155;52.164;21.236;2023-04-27T03:18:32;100637.89;;;-0.41;70.46
44453;BME280;30155;52.164;21.236;2023-04-27T03:23:25;100634.70;;;-0.43;70.53
44453;BME280;30155;52.164;21.236;2023-04-27T03:28:19;100637.61;;;-0.45;70.54
44453;BME280;30155;52.164;21.236;2023-04-27T03:33:11;100642.14;;;-0.47;70.79
44453;BME280;30155;52.164;21.236;2023-04-27T03:38:07;100647.05;;;-0.41;70.87
44453;BME280;30155;52.164;21.236;2023-04-27T03:43:04;100647.10;;;-0.34;70.92
44453;BME280;30155;52.164;21.236;2023-04-27T03:47:56;100644.73;;;-0.31;70.96
44453;BME280;30155;52.164;21.236;2023-04-27T03:52:49;100643.86;;;-0.26;71.03
44453;BME280;30155;52.164;21.236;2023-04-27T03:57:44;100648.44;;;-0.09;70.82
44453;BME280;30155;52.164;21.236;2023-04-27T04:02:40;100652.99;;;0.32;70.59
44453;BME280;30155;52.164;21.236;2023-04-27T04:07:39;100660.66;;;0.62;70.17
44453;BME280;30155;52.164;21.236;2023-04-27T04:12:34;100659.02;;;0.54;70.15
44453;BME280;30155;52.164;21.236;2023-04-27T04:23:39;100665.45;;;0.53;70.38
44453;BME280;30155;52.164;21.236;2023-04-27T04:28:58;100670.66;;;0.49;70.13
44453;BME280;30155;52.164;21.236;2023-04-27T04:33:54;100673.66;;;0.45;70.41
44453;BME280;30155;52.164;21.236;2023-04-27T04:39:19;100689.31;;;0.47;70.43
44453;BME280;30155;52.164;21.236;2023-04-27T04:44:16;100696.62;;;0.52;70.96
44453;BME280;30155;52.164;21.236;2023-04-27T04:49:19;100696.77;;;0.58;70.99
44453;BME280;30155;52.164;21.236;2023-04-27T04:54:13;100697.31;;;0.67;71.24
44453;BME280;30155;52.164;21.236;2023-04-27T04:59:06;100695.45;;;0.77;71.37
44453;BME280;30155;52.164;21.236;2023-04-27T05:03:59;100694.95;;;0.87;71.59
44453;BME280;30155;52.164;21.236;2023-04-27T05:08:52;100689.36;;;1.00;71.82
44453;BME280;30155;52.164;21.236;2023-04-27T05:13:45;100689.38;;;1.12;72.11
44453;BME280;30155;52.164;21.236;2023-04-27T05:18:38;100693.50;;;1.29;72.27
44453;BME280;30155;52.164;21.236;2023-04-27T05:23:32;100694.86;;;1.44;72.43
44453;BME280;30155;52.164;21.236;2023-04-27T05:28:25;100693.06;;;1.63;72.72
44453;BME280;30155;52.164;21.236;2023-04-27T05:33:19;100698.23;;;1.83;72.71
44453;BME280;30155;52.164;21.236;2023-04-27T05:38:12;100701.88;;;2.08;73.01
44453;BME280;30155;52.164;21.236;2023-04-27T05:43:08;100703.19;;;2.37;72.94
44453;BME280;30155;52.164;21.236;2023-04-27T05:48:01;100700.38;;;2.64;72.45
44453;BME280;30155;52.164;21.236;2023-04-27T05:52:54;100697.04;;;2.90;72.24
44453;BME280;30155;52.164;21.236;2023-04-27T05:57:46;100696.30;;;3.23;71.80
44453;BME280;30155;52.164;21.236;2023-04-27T06:02:54;100694.01;;;3.55;71.57
44453;BME280;30155;52.164;21.236;2023-04-27T06:07:48;100695.92;;;3.86;71.13
44453;BME280;30155;52.164;21.236;2023-04-27T06:12:41;100698.70;;;4.19;70.47
44453;BME280;30155;52.164;21.236;2023-04-27T06:17:37;100697.80;;;5.79;68.32
44453;BME280;30155;52.164;21.236;2023-04-27T06:22:30;100692.58;;;8.53;64.93
44453;BME280;30155;52.164;21.236;2023-04-27T06:27:23;100694.16;;;8.59;63.95
44453;BME280;30155;52.164;21.236;2023-04-27T06:32:16;100698.31;;;8.27;63.50
44453;BME280;30155;52.164;21.236;2023-04-27T06:37:08;100698.08;;;8.04;63.44
44453;BME280;30155;52.164;21.236;2023-04-27T06:42:01;100696.73;;;9.11;62.16
44453;BME280;30155;52.164;21.236;2023-04-27T06:46:55;100692.16;;;10.47;59.70
44453;BME280;30155;52.164;21.236;2023-04-27T06:51:49;100688.30;;;12.51;57.54
44453;BME280;30155;52.164;21.236;2023-04-27T06:56:42;100688.40;;;14.70;54.37
44453;BME280;30155;52.164;21.236;2023-04-27T07:01:36;100680.55;;;17.42;50.91
44453;BME280;30155;52.164;21.236;2023-04-27T07:06:29;100684.27;;;18.78;48.71
44453;BME280;30155;52.164;21.236;2023-04-27T07:11:22;100687.29;;;18.55;48.39
44453;BME280;30155;52.164;21.236;2023-04-27T07:16:15;100687.74;;;20.19;45.49
44453;BME280;30155;52.164;21.236;2023-04-27T07:21:08;100685.84;;;21.51;43.83
44453;BME280;30155;52.164;21.236;2023-04-27T07:26:01;100686.89;;;22.49;41.34
44453;BME280;30155;52.164;21.236;2023-04-27T07:30:54;100687.95;;;23.52;39.53
44453;BME280;30155;52.164;21.236;2023-04-27T07:35:48;100691.56;;;25.25;37.55
44453;BME280;30155;52.164;21.236;2023-04-27T07:40:41;100686.42;;;26.97;34.61
44453;BME280;30155;52.164;21.236;2023-04-27T07:45:35;100688.45;;;25.31;34.60
44453;BME280;30155;52.164;21.236;2023-04-27T07:50:30;100684.94;;;24.55;33.66
44453;BME280;30155;52.164;21.236;2023-04-27T07:55:24;100689.04;;;24.64;32.60
44453;BME280;30155;52.164;21.236;2023-04-27T08:00:17;100689.49;;;25.20;31.58
44453;BME280;30155;52.164;21.236;2023-04-27T08:05:10;100692.88;;;25.19;30.73
44453;BME280;30155;52.164;21.236;2023-04-27T08:10:06;100698.11;;;23.09;31.47
44453;BME280;30155;52.164;21.236;2023-04-27T08:14:59;100706.36;;;21.61;32.91
44453;BME280;30155;52.164;21.236;2023-04-27T08:19:52;100703.34;;;21.43;33.09
44453;BME280;30155;52.164;21.236;2023-04-27T08:24:45;100704.66;;;22.01;32.28
44453;BME280;30155;52.164;21.236;2023-04-27T08:29:38;100704.48;;;21.13;32.27
44453;BME280;30155;52.164;21.236;2023-04-27T08:34:36;100704.92;;;21.61;32.50
44453;BME280;30155;52.164;21.236;2023-04-27T08:39:29;100708.55;;;22.24;31.79
44453;BME280;30155;52.164;21.236;2023-04-27T08:44:22;100705.34;;;21.84;31.58
44453;BME280;30155;52.164;21.236;2023-04-27T08:49:14;100700.80;;;21.26;31.76
44453;BME280;30155;52.164;21.236;2023-04-27T08:54:08;100704.51;;;19.51;33.49
44453;BME280;30155;52.164;21.236;2023-04-27T08:59:01;100711.61;;;18.49;34.51
44453;BME280;30155;52.164;21.236;2023-04-27T09:03:56;100707.79;;;17.55;34.88
44453;BME280;30155;52.164;21.236;2023-04-27T09:08:49;100709.60;;;17.79;35.21
44453;BME280;30155;52.164;21.236;2023-04-27T09:13:43;100711.07;;;17.28;35.28
44453;BME280;30155;52.164;21.236;2023-04-27T09:18:40;100709.23;;;16.54;35.01
44453;BME280;30155;52.164;21.236;2023-04-27T09:23:35;100712.69;;;15.21;35.94
44453;BME280;30155;52.164;21.236;2023-04-27T09:28:29;100709.59;;;14.78;36.52
44453;BME280;30155;52.164;21.236;2023-04-27T09:33:32;100714.89;;;14.11;37.39
44453;BME280;30155;52.164;21.236;2023-04-27T09:38:26;100717.41;;;13.42;37.65
44453;BME280;30155;52.164;21.236;2023-04-27T09:43:19;100718.58;;;12.62;38.30
44453;BME280;30155;52.164;21.236;2023-04-27T09:48:12;100717.86;;;12.07;39.18
44453;BME280;30155;52.164;21.236;2023-04-27T09:53:08;100721.13;;;11.62;40.53
44453;BME280;30155;52.164;21.236;2023-04-27T10:08:08;100749.04;;;10.47;44.06
44453;BME280;30155;52.164;21.236;2023-04-27T10:13:02;100745.86;;;10.54;44.22
44453;BME280;30155;52.164;21.236;2023-04-27T10:17:55;100739.84;;;10.87;44.17
44453;BME280;30155;52.164;21.236;2023-04-27T10:22:49;100726.86;;;11.49;44.12
44453;BME280;30155;52.164;21.236;2023-04-27T10:27:43;100729.77;;;12.15;43.61
44453;BME280;30155;52.164;21.236;2023-04-27T10:32:52;100725.77;;;12.49;43.31
44453;BME280;30155;52.164;21.236;2023-04-27T10:37:46;100725.86;;;12.41;43.33
44453;BME280;30155;52.164;21.236;2023-04-27T10:42:40;100737.35;;;11.95;43.42
44453;BME280;30155;52.164;21.236;2023-04-27T10:47:39;100741.33;;;11.41;44.28
44453;BME280;30155;52.164;21.236;2023-04-27T10:52:32;100745.80;;;11.14;44.93
44453;BME280;30155;52.164;21.236;2023-04-27T10:57:25;100743.65;;;11.09;45.17
44453;BME280;30155;52.164;21.236;2023-04-27T11:02:26;100745.41;;;11.10;44.51
44453;BME280;30155;52.164;21.236;2023-04-27T11:07:27;100747.30;;;10.98;44.13
44453;BME280;30155;52.164;21.236;2023-04-27T11:12:20;100749.19;;;10.87;43.82
44453;BME280;30155;52.164;21.236;2023-04-27T11:17:13;100757.55;;;10.78;43.81
44453;BME280;30155;52.164;21.236;2023-04-27T11:22:06;100762.53;;;10.75;43.98
44453;BME280;30155;52.164;21.236;2023-04-27T11:26:58;100766.96;;;10.71;43.08
44453;BME280;30155;52.164;21.236;2023-04-27T11:31:51;100768.15;;;10.69;43.08
44453;BME280;30155;52.164;21.236;2023-04-27T11:37:03;100766.59;;;10.80;43.85
44453;BME280;30155;52.164;21.236;2023-04-27T11:42:26;100766.93;;;11.11;44.04
44453;BME280;30155;52.164;21.236;2023-04-27T11:47:20;100757.23;;;11.36;44.07
44453;BME280;30155;52.164;21.236;2023-04-27T11:52:13;100755.90;;;11.40;44.45
44453;BME280;30155;52.164;21.236;2023-04-27T11:57:06;100758.23;;;11.33;44.17
44453;BME280;30155;52.164;21.236;2023-04-27T12:01:59;100758.17;;;11.18;43.98
44453;BME280;30155;52.164;21.236;2023-04-27T12:06:52;100756.88;;;11.23;43.53
44453;BME280;30155;52.164;21.236;2023-04-27T12:11:45;100760.44;;;11.67;43.19
44453;BME280;30155;52.164;21.236;2023-04-27T12:16:38;100755.64;;;12.66;42.69
44453;BME280;30155;52.164;21.236;2023-04-27T12:21:31;100745.50;;;13.96;41.77
44453;BME280;30155;52.164;21.236;2023-04-27T12:26:24;100740.99;;;14.95;40.39
44453;BME280;30155;52.164;21.236;2023-04-27T12:31:17;100738.30;;;15.41;39.55
44453;BME280;30155;52.164;21.236;2023-04-27T12:36:18;100738.45;;;15.51;39.57
44453;BME280;30155;52.164;21.236;2023-04-27T12:41:11;100742.16;;;15.90;39.11
44453;BME280;30155;52.164;21.236;2023-04-27T12:46:03;100753.87;;;15.16;37.93
44453;BME280;30155;52.164;21.236;2023-04-27T12:50:56;100754.89;;;14.39;38.62
44453;BME280;30155;52.164;21.236;2023-04-27T12:55:49;100755.96;;;13.92;38.86
44453;BME280;30155;52.164;21.236;2023-04-27T13:00:44;100756.77;;;13.43;39.25
44453;BME280;30155;52.164;21.236;2023-04-27T13:05:36;100762.27;;;12.87;39.84
44453;BME280;30155;52.164;21.236;2023-04-27T13:10:29;100766.52;;;12.40;41.48
44453;BME280;30155;52.164;21.236;2023-04-27T13:15:22;100765.61;;;12.35;42.16
44453;BME280;30155;52.164;21.236;2023-04-27T13:20:15;100767.98;;;12.63;41.64
44453;BME280;30155;52.164;21.236;2023-04-27T13:25:08;100764.11;;;12.78;41.18
44453;BME280;30155;52.164;21.236;2023-04-27T13:30:01;100762.86;;;12.75;40.55
44453;BME280;30155;52.164;21.236;2023-04-27T13:34:54;100765.64;;;12.56;40.53
44453;BME280;30155;52.164;21.236;2023-04-27T13:39:48;100763.77;;;12.25;40.92
44453;BME280;30155;52.164;21.236;2023-04-27T13:44:40;100770.77;;;11.99;40.64
44453;BME280;30155;52.164;21.236;2023-04-27T13:49:33;100773.39;;;11.90;40.80
44453;BME280;30155;52.164;21.236;2023-04-27T13:54:27;100776.38;;;12.03;40.94
44453;BME280;30155;52.164;21.236;2023-04-27T13:59:20;100776.38;;;12.17;40.71
44453;BME280;30155;52.164;21.236;2023-04-27T14:04:13;100775.52;;;12.34;40.88
44453;BME280;30155;52.164;21.236;2023-04-27T14:09:05;100778.86;;;12.39;40.90
44453;BME280;30155;52.164;21.236;2023-04-27T14:14:00;100783.34;;;12.35;40.63
44453;BME280;30155;52.164;21.236;2023-04-27T14:18:52;100782.98;;;12.34;41.04
44453;BME280;30155;52.164;21.236;2023-04-27T14:23:46;100780.45;;;12.25;40.96
44453;BME280;30155;52.164;21.236;2023-04-27T14:28:39;100783.39;;;12.09;40.88
44453;BME280;30155;52.164;21.236;2023-04-27T14:33:32;100786.35;;;11.95;41.16
44453;BME280;30155;52.164;21.236;2023-04-27T14:38:26;100783.75;;;11.84;41.93
44453;BME280;30155;52.164;21.236;2023-04-27T14:43:19;100788.59;;;11.83;42.03
44453;BME280;30155;52.164;21.236;2023-04-27T14:48:12;100788.20;;;11.91;42.14
44453;BME280;30155;52.164;21.236;2023-04-27T14:53:05;100790.11;;;11.91;41.97
44453;BME280;30155;52.164;21.236;2023-04-27T14:57:58;100796.70;;;11.91;41.67
44453;BME280;30155;52.164;21.236;2023-04-27T15:02:51;100798.75;;;11.75;41.56
44453;BME280;30155;52.164;21.236;2023-04-27T15:07:45;100802.55;;;11.61;41.41
44453;BME280;30155;52.164;21.236;2023-04-27T15:12:38;100804.41;;;11.47;40.88
44453;BME280;30155;52.164;21.236;2023-04-27T15:17:31;100809.26;;;11.45;40.98
44453;BME280;30155;52.164;21.236;2023-04-27T15:22:24;100808.36;;;11.56;40.84
44453;BME280;30155;52.164;21.236;2023-04-27T15:27:18;100812.05;;;11.58;40.29
44453;BME280;30155;52.164;21.236;2023-04-27T15:32:11;100809.16;;;11.50;40.35
44453;BME280;30155;52.164;21.236;2023-04-27T15:37:04;100816.95;;;11.37;40.59
44453;BME280;30155;52.164;21.236;2023-04-27T15:41:57;100819.64;;;11.21;41.21
44453;BME280;30155;52.164;21.236;2023-04-27T15:46:50;100821.00;;;10.98;41.44
44453;BME280;30155;52.164;21.236;2023-04-27T15:51:43;100822.39;;;10.77;42.07
44453;BME280;30155;52.164;21.236;2023-04-27T15:56:35;100826.63;;;10.54;42.19
44453;BME280;30155;52.164;21.236;2023-04-27T16:01:28;100831.14;;;10.28;42.46
44453;BME280;30155;52.164;21.236;2023-04-27T16:06:22;100829.13;;;10.15;42.89
44453;BME280;30155;52.164;21.236;2023-04-27T16:11:17;100835.20;;;10.07;43.28
44453;BME280;30155;52.164;21.236;2023-04-27T16:16:10;100837.89;;;10.03;43.51
44453;BME280;30155;52.164;21.236;2023-04-27T16:21:03;100840.89;;;9.97;43.17
44453;BME280;30155;52.164;21.236;2023-04-27T16:25:56;100838.87;;;9.92;42.84
44453;BME280;30155;52.164;21.236;2023-04-27T16:30:49;100843.70;;;9.91;43.40
44453;BME280;30155;52.164;21.236;2023-04-27T16:35:43;100846.34;;;9.84;43.37
44453;BME280;30155;52.164;21.236;2023-04-27T16:40:35;100851.21;;;9.78;43.55
44453;BME280;30155;52.164;21.236;2023-04-27T16:45:28;100848.51;;;9.73;43.91
44453;BME280;30155;52.164;21.236;2023-04-27T16:50:21;100853.98;;;9.71;43.95
44453;BME280;30155;52.164;21.236;2023-04-27T16:55:14;100860.60;;;9.65;44.10
44453;BME280;30155;52.164;21.236;2023-04-27T17:00:07;100863.84;;;9.56;44.43
44453;BME280;30155;52.164;21.236;2023-04-27T17:05:01;100864.20;;;9.49;44.29
44453;BME280;30155;52.164;21.236;2023-04-27T17:09:54;100864.98;;;9.45;44.50
44453;BME280;30155;52.164;21.236;2023-04-27T17:14:47;100868.84;;;9.40;44.86
44453;BME280;30155;52.164;21.236;2023-04-27T17:19:40;100866.08;;;9.33;45.33
44453;BME280;30155;52.164;21.236;2023-04-27T17:24:32;100870.58;;;9.27;45.66
44453;BME280;30155;52.164;21.236;2023-04-27T17:29:26;100874.20;;;9.18;45.56
44453;BME280;30155;52.164;21.236;2023-04-27T17:34:19;100876.16;;;9.07;46.10
44453;BME280;30155;52.164;21.236;2023-04-27T17:39:12;100882.86;;;8.99;46.30
44453;BME280;30155;52.164;21.236;2023-04-27T17:44:06;100880.45;;;8.92;46.77
44453;BME280;30155;52.164;21.236;2023-04-27T17:48:58;100887.56;;;8.87;46.77
44453;BME280;30155;52.164;21.236;2023-04-27T17:53:52;100887.09;;;8.83;46.84
44453;BME280;30155;52.164;21.236;2023-04-27T17:58:47;100886.81;;;8.78;46.97
44453;BME280;30155;52.164;21.236;2023-04-27T18:03:40;100894.45;;;8.67;46.81
44453;BME280;30155;52.164;21.236;2023-04-27T18:08:33;100896.59;;;8.57;47.25
44453;BME280;30155;52.164;21.236;2023-04-27T18:14:13;100907.02;;;8.42;47.86
44453;BME280;30155;52.164;21.236;2023-04-27T18:19:05;100916.27;;;8.15;48.12
44453;BME280;30155;52.164;21.236;2023-04-27T18:23:58;100923.42;;;7.90;48.83
44453;BME280;30155;52.164;21.236;2023-04-27T18:28:51;100929.04;;;7.65;49.53
44453;BME280;30155;52.164;21.236;2023-04-27T18:33:44;100930.77;;;7.39;50.23
44453;BME280;30155;52.164;21.236;2023-04-27T18:38:38;100930.27;;;7.14;50.53
44453;BME280;30155;52.164;21.236;2023-04-27T18:43:33;100930.35;;;6.96;51.31
44453;BME280;30155;52.164;21.236;2023-04-27T18:48:27;100933.75;;;6.80;51.81
44453;BME280;30155;52.164;21.236;2023-04-27T18:53:20;100939.10;;;6.61;52.23
44453;BME280;30155;52.164;21.236;2023-04-27T18:58:13;100935.35;;;6.53;52.68
44453;BME280;30155;52.164;21.236;2023-04-27T19:03:06;100934.55;;;6.45;52.99
44453;BME280;30155;52.164;21.236;2023-04-27T19:07:59;100935.59;;;6.36;53.54
44453;BME280;30155;52.164;21.236;2023-04-27T19:12:52;100941.25;;;6.22;53.47
44453;BME280;30155;52.164;21.236;2023-04-27T19:17:46;100943.80;;;6.03;53.58
44453;BME280;30155;52.164;21.236;2023-04-27T19:22:57;100941.07;;;5.87;53.92
44453;BME280;30155;52.164;21.236;2023-04-27T19:27:50;100940.17;;;5.73;54.32
44453;BME280;30155;52.164;21.236;2023-04-27T19:32:43;100946.77;;;5.57;54.87
44453;BME280;30155;52.164;21.236;2023-04-27T19:37:36;100945.16;;;5.43;55.39
44453;BME280;30155;52.164;21.236;2023-04-27T19:42:29;100945.56;;;5.32;55.64
44453;BME280;30155;52.164;21.236;2023-04-27T19:47:22;100947.75;;;5.19;56.11
44453;BME280;30155;52.164;21.236;2023-04-27T19:52:15;100943.45;;;5.07;56.40
44453;BME280;30155;52.164;21.236;2023-04-27T19:57:08;100947.02;;;4.98;56.81
44453;BME280;30155;52.164;21.236;2023-04-27T20:02:01;100949.31;;;4.87;57.02
44453;BME280;30155;52.164;21.236;2023-04-27T20:06:58;100953.52;;;4.77;57.25
44453;BME280;30155;52.164;21.236;2023-04-27T20:11:51;100948.66;;;4.65;57.43
44453;BME280;30155;52.164;21.236;2023-04-27T20:16:45;100955.66;;;4.52;57.68
44453;BME280;30155;52.164;21.236;2023-04-27T20:21:38;100962.48;;;4.40;58.14
44453;BME280;30155;52.164;21.236;2023-04-27T20:26:31;100968.96;;;4.28;58.31
44453;BME280;30155;52.164;21.236;2023-04-27T20:31:24;100969.20;;;4.14;58.70
44453;BME280;30155;52.164;21.236;2023-04-27T20:36:17;100967.94;;;3.98;59.19
44453;BME280;30155;52.164;21.236;2023-04-27T20:41:10;100973.45;;;3.85;59.38
44453;BME280;30155;52.164;21.236;2023-04-27T20:46:08;100979.02;;;3.71;59.57
44453;BME280;30155;52.164;21.236;2023-04-27T20:51:02;100978.95;;;3.60;59.97
44453;BME280;30155;52.164;21.236;2023-04-27T20:55:55;100980.06;;;3.52;60.12
44453;BME280;30155;52.164;21.236;2023-04-27T21:00:48;100979.52;;;3.36;60.24
44453;BME280;30155;52.164;21.236;2023-04-27T21:05:42;100981.64;;;3.28;60.76
44453;BME280;30155;52.164;21.236;2023-04-27T21:10:34;100984.76;;;3.22;60.92
44453;BME280;30155;52.164;21.236;2023-04-27T21:15:27;100986.58;;;3.14;61.39
44453;BME280;30155;52.164;21.236;2023-04-27T21:20:20;100989.64;;;3.07;61.62
44453;BME280;30155;52.164;21.236;2023-04-27T21:25:13;100987.13;;;3.01;61.42
44453;BME280;30155;52.164;21.236;2023-04-27T21:30:06;100992.48;;;2.92;61.61
44453;BME280;30155;52.164;21.236;2023-04-27T21:34:59;100994.63;;;2.84;61.98
44453;BME280;30155;52.164;21.236;2023-04-27T21:39:52;100996.08;;;2.76;61.95
44453;BME280;30155;52.164;21.236;2023-04-27T21:44:44;101002.15;;;2.68;61.94
44453;BME280;30155;52.164;21.236;2023-04-27T21:49:38;101000.40;;;2.63;62.56
44453;BME280;30155;52.164;21.236;2023-04-27T21:54:31;101005.04;;;2.60;62.65
44453;BME280;30155;52.164;21.236;2023-04-27T21:59:25;101011.34;;;2.57;62.62
44453;BME280;30155;52.164;21.236;2023-04-27T22:04:17;101015.52;;;2.55;63.00
44453;BME280;30155;52.164;21.236;2023-04-27T22:09:11;101021.42;;;2.53;62.84
44453;BME280;30155;52.164;21.236;2023-04-27T22:14:04;101023.13;;;2.50;62.90
44453;BME280;30155;52.164;21.236;2023-04-27T22:18:57;101021.19;;;2.46;63.32
44453;BME280;30155;52.164;21.236;2023-04-27T22:23:50;101024.59;;;2.39;63.19
44453;BME280;30155;52.164;21.236;2023-04-27T22:28:43;101026.83;;;2.30;63.17
44453;BME280;30155;52.164;21.236;2023-04-27T22:33:36;101027.67;;;2.20;63.20
44453;BME280;30155;52.164;21.236;2023-04-27T22:38:29;101025.67;;;2.15;63.74
44453;BME280;30155;52.164;21.236;2023-04-27T22:43:21;101024.16;;;2.13;63.77
44453;BME280;30155;52.164;21.236;2023-04-27T22:48:14;101026.12;;;2.08;63.85
44453;BME280;30155;52.164;21.236;2023-04-27T22:53:08;101025.70;;;2.04;63.78
44453;BME280;30155;52.164;21.236;2023-04-27T22:58:00;101029.11;;;2.01;64.10
44453;BME280;30155;52.164;21.236;2023-04-27T23:02:53;101029.48;;;1.98;64.31
44453;BME280;30155;52.164;21.236;2023-04-27T23:07:49;101031.04;;;1.92;64.29
44453;BME280;30155;52.164;21.236;2023-04-27T23:12:42;101028.56;;;1.87;64.18
44453;BME280;30155;52.164;21.236;2023-04-27T23:17:35;101032.21;;;1.83;64.40
44453;BME280;30155;52.164;21.236;2023-04-27T23:22:28;101036.00;;;1.83;64.75
44453;BME280;30155;52.164;21.236;2023-04-27T23:27:21;101038.32;;;1.91;64.87
44453;BME280;30155;52.164;21.236;2023-04-27T23:32:19;101041.66;;;1.99;64.84
44453;BME280;30155;52.164;21.236;2023-04-27T23:37:12;101040.73;;;2.09;64.99
44453;BME280;30155;52.164;21.236;2023-04-27T23:42:05;101037.48;;;2.18;64.91
44453;BME280;30155;52.164;21.236;2023-04-27T23:46:58;101029.02;;;2.23;65.34
44453;BME280;30155;52.164;21.236;2023-04-27T23:51:51;101025.30;;;2.30;65.83
44453;BME280;30155;52.164;21.236;2023-04-27T23:56:44;101027.38;;;2.31;65.61
